Main page
METAR-TAF:

METAR-TAF

Airports :

Rostock–Laage Airport

Rostock, Germany

latitude: 53-55N, longitude: 012-17E, elevation: 40 m

Current weather observation

The report was made 58 minutes ago, at 04:20 UTC
Wind 6 kt from the Southwest
Temperature 10°C
Humidity 93%
Pressure 1022 hPa
Visibility 10 km or more
Scattered clouds at a height of 2000 ft

METAR: ETNL 200420Z 22006KT 9999 SCT020 10/09 Q1022 BLU+

Time: 07:18 (05:18 UTC)

Forecast

The report was made 1 hour and 12 minutes ago, at 04:06 UTC
Forecast valid from 20 at 05 UTC to 20 at 17 UTC
Wind 5 kt from the West
Visibility 10 km or more
Few clouds at a height of 2000 ft

TAF: ETNL 200406Z 2005/2017 28005KT 9999 NSW FEW020

Weather observations and forecasts of more than 4000 airports (METAR and TAF reports).

The available stations are represented by yellow and red dots on the map.

Hover mouse over dot to see the name of the station.

Then click to see weather observations and forecasts.

To change the map : click on the green buttons with a black cross to zoom in, on the green button with a dash to zoom out, or on the green arrows for adjacent maps.


METAR-TAF: